createdAt,value
2022-07-29T00:01:43.845Z,22.09
2022-07-29T00:04:12.110Z,22.11
2022-07-29T00:06:41.997Z,22.12
2022-07-29T00:09:12.416Z,22.10
2022-07-29T00:11:40.355Z,22.10
2022-07-29T00:14:08.609Z,22.10
2022-07-29T00:16:37.018Z,22.12
2022-07-29T00:19:05.709Z,22.13
2022-07-29T00:21:36.112Z,22.14
2022-07-29T00:24:05.823Z,22.15
2022-07-29T00:26:33.921Z,22.18
2022-07-29T00:29:32.518Z,22.18
2022-07-29T00:31:53.210Z,22.22
2022-07-29T00:34:40.992Z,22.28
2022-07-29T00:37:09.180Z,22.26
2022-07-29T00:39:38.477Z,22.24
2022-07-29T00:42:07.284Z,22.21
2022-07-29T00:44:38.926Z,22.20
2022-07-29T00:47:07.596Z,22.19
2022-07-29T00:49:36.006Z,22.20
2022-07-29T00:52:04.993Z,22.21
2022-07-29T00:54:33.030Z,22.25
2022-07-29T00:57:03.242Z,22.20
2022-07-29T00:59:35.498Z,22.19
2022-07-29T01:02:03.956Z,22.18
2022-07-29T01:04:32.976Z,22.16
2022-07-29T01:07:05.989Z,22.13
2022-07-29T01:09:45.205Z,22.10
2022-07-29T01:12:23.285Z,22.11
2022-07-29T01:14:52.115Z,22.09
2022-07-29T01:17:23.906Z,22.08
2022-07-29T01:19:59.974Z,22.05
2022-07-29T01:22:33.828Z,22.14
2022-07-29T01:25:19.759Z,22.10
2022-07-29T01:28:10.089Z,22.02
2022-07-29T01:30:48.304Z,22.02
2022-07-29T01:33:33.703Z,21.94
2022-07-29T01:36:03.620Z,21.89
2022-07-29T01:38:35.045Z,21.88
2022-07-29T01:41:11.043Z,21.85
2022-07-29T01:43:46.463Z,21.85
2022-07-29T01:46:24.761Z,21.81
2022-07-29T01:48:57.210Z,21.76
2022-07-29T01:51:31.307Z,21.70
2022-07-29T01:54:05.952Z,21.69
2022-07-29T01:56:35.342Z,21.67
2022-07-29T01:59:06.621Z,21.61
2022-07-29T02:01:38.135Z,21.57
2022-07-29T02:04:12.164Z,21.56
2022-07-29T02:07:03.841Z,21.54
2022-07-29T02:09:33.730Z,21.46
2022-07-29T02:12:04.131Z,21.38
2022-07-29T02:14:38.296Z,21.34
2022-07-29T02:17:08.130Z,21.28
2022-07-29T02:19:39.391Z,21.22
2022-07-29T02:22:11.051Z,21.15
2022-07-29T02:24:41.110Z,21.10
2022-07-29T02:27:10.286Z,21.05
2022-07-29T02:29:41.414Z,21.00
2022-07-29T02:32:14.688Z,20.95
2022-07-29T02:34:44.969Z,20.93
2022-07-29T02:37:13.836Z,20.90
2022-07-29T02:39:44.325Z,20.86
2022-07-29T02:42:16.843Z,20.82
2022-07-29T02:44:45.523Z,20.79
2022-07-29T02:47:21.003Z,20.72
2022-07-29T02:49:57.225Z,20.68
2022-07-29T02:52:33.686Z,20.61
2022-07-29T02:55:16.965Z,20.55
2022-07-29T02:57:53.956Z,20.49
2022-07-29T03:00:25.737Z,20.46
2022-07-29T03:02:57.419Z,20.42
2022-07-29T03:05:26.452Z,20.38
2022-07-29T03:07:59.308Z,20.39
2022-07-29T03:10:28.918Z,20.36
2022-07-29T03:12:58.427Z,20.38
2022-07-29T03:15:28.414Z,20.38
2022-07-29T03:17:58.691Z,20.37
2022-07-29T03:20:27.398Z,20.36
2022-07-29T03:22:57.489Z,20.33
2022-07-29T03:25:28.253Z,20.29
2022-07-29T03:27:57.361Z,20.29
2022-07-29T03:30:25.695Z,20.27
2022-07-29T03:32:54.172Z,20.23
2022-07-29T03:35:26.082Z,20.23
2022-07-29T03:37:54.350Z,20.20
2022-07-29T03:40:26.676Z,20.19
2022-07-29T03:42:57.442Z,20.22
2022-07-29T03:45:27.413Z,20.22
2022-07-29T03:48:01.457Z,20.24
2022-07-29T03:50:33.336Z,20.28
2022-07-29T03:53:02.833Z,20.29
2022-07-29T03:55:45.249Z,20.35
2022-07-29T03:58:16.693Z,20.40
2022-07-29T04:00:47.579Z,20.42
2022-07-29T04:03:18.000Z,20.44
2022-07-29T04:05:47.456Z,20.51
2022-07-29T04:08:17.762Z,20.52
2022-07-29T04:10:48.388Z,20.53
2022-07-29T04:13:19.153Z,20.51
2022-07-29T04:15:47.139Z,20.48
2022-07-29T04:18:15.059Z,20.45
2022-07-29T04:20:43.055Z,20.39
2022-07-29T04:23:12.584Z,20.33
2022-07-29T04:25:44.063Z,20.27
2022-07-29T04:28:12.298Z,20.20
2022-07-29T04:30:40.808Z,20.15
2022-07-29T04:33:09.342Z,20.10
2022-07-29T04:35:39.006Z,20.06
2022-07-29T04:38:19.473Z,20.03
2022-07-29T04:40:47.415Z,20.00
2022-07-29T04:43:22.411Z,19.96
2022-07-29T04:45:51.777Z,19.93
2022-07-29T04:48:28.363Z,19.91
2022-07-29T04:50:57.066Z,19.86
2022-07-29T04:53:26.867Z,19.85
2022-07-29T04:55:57.810Z,19.83
2022-07-29T04:58:25.954Z,19.82
2022-07-29T05:00:53.957Z,19.80
2022-07-29T05:03:22.007Z,19.77
2022-07-29T05:05:50.131Z,19.76
2022-07-29T05:08:18.300Z,19.72
2022-07-29T05:10:50.144Z,19.72
2022-07-29T05:13:18.182Z,19.69
2022-07-29T05:15:46.250Z,19.68
2022-07-29T05:18:15.064Z,19.67
2022-07-29T05:20:43.390Z,19.63
2022-07-29T05:23:13.664Z,19.63
2022-07-29T05:25:44.201Z,19.63
2022-07-29T05:28:14.643Z,19.64
2022-07-29T05:30:43.081Z,19.66
2022-07-29T05:33:35.887Z,19.69
2022-07-29T05:36:00.935Z,19.73
2022-07-29T05:38:29.293Z,19.78
2022-07-29T05:41:00.897Z,19.80
2022-07-29T05:43:30.518Z,19.83
2022-07-29T05:45:59.179Z,19.88
2022-07-29T05:48:29.960Z,19.91
2022-07-29T05:50:58.035Z,19.96
2022-07-29T05:53:25.996Z,19.98
2022-07-29T05:55:54.145Z,20.04
2022-07-29T05:58:22.248Z,20.06
2022-07-29T06:00:53.414Z,20.10
2022-07-29T06:03:21.424Z,20.11
2022-07-29T06:05:51.557Z,20.14
2022-07-29T06:08:19.565Z,20.17
2022-07-29T06:10:47.834Z,20.27
2022-07-29T06:13:16.788Z,20.33
2022-07-29T06:15:44.929Z,20.42
2022-07-29T06:18:14.836Z,20.50
2022-07-29T06:20:43.051Z,20.59
2022-07-29T06:23:13.188Z,20.65
2022-07-29T06:25:42.261Z,20.71
2022-07-29T06:28:10.337Z,20.80
2022-07-29T06:30:38.360Z,20.85
2022-07-29T06:33:09.475Z,20.89
2022-07-29T06:35:41.714Z,20.92
2022-07-29T06:38:33.703Z,20.91
2022-07-29T06:41:02.090Z,20.89
2022-07-29T06:43:32.809Z,20.88
2022-07-29T06:46:02.669Z,20.88
2022-07-29T06:48:31.246Z,20.89
2022-07-29T06:51:01.076Z,20.93
2022-07-29T06:53:30.699Z,20.96
2022-07-29T06:56:00.191Z,21.03
2022-07-29T06:58:29.840Z,21.09
2022-07-29T07:00:58.850Z,21.16
2022-07-29T07:03:27.408Z,21.23
2022-07-29T07:05:58.264Z,21.29
2022-07-29T07:08:29.963Z,21.35
2022-07-29T07:10:58.151Z,21.44
2022-07-29T07:13:29.359Z,21.55
2022-07-29T07:15:57.548Z,21.66
2022-07-29T07:18:25.664Z,21.81
2022-07-29T07:20:53.968Z,21.92
2022-07-29T07:23:22.029Z,22.01
2022-07-29T07:25:51.426Z,22.10
2022-07-29T07:28:24.570Z,22.19
2022-07-29T07:30:53.522Z,22.26
2022-07-29T07:33:21.724Z,22.33
2022-07-29T07:35:51.817Z,22.42
2022-07-29T07:38:25.009Z,22.52
2022-07-29T07:40:54.581Z,22.61
2022-07-29T07:43:22.774Z,22.71
2022-07-29T07:45:50.918Z,22.78
2022-07-29T07:48:19.200Z,22.83
2022-07-29T07:50:51.558Z,22.91
2022-07-29T07:53:19.795Z,22.98
2022-07-29T07:56:09.937Z,23.06
2022-07-29T07:58:40.152Z,23.15
2022-07-29T08:01:09.070Z,23.24
2022-07-29T08:03:37.148Z,23.30
2022-07-29T08:06:05.917Z,23.39
2022-07-29T08:08:37.232Z,23.45
2022-07-29T08:11:09.662Z,23.55
2022-07-29T08:13:41.402Z,23.61
2022-07-29T08:16:16.085Z,23.76
2022-07-29T08:18:48.180Z,23.76
2022-07-29T08:21:17.237Z,23.82
2022-07-29T08:23:57.750Z,23.86
2022-07-29T08:26:27.055Z,24.05
2022-07-29T08:28:56.508Z,24.02
2022-07-29T08:31:24.556Z,24.04
2022-07-29T08:33:52.537Z,24.12
2022-07-29T08:36:21.955Z,24.23
2022-07-29T08:38:50.423Z,24.27
2022-07-29T08:41:19.948Z,24.38
2022-07-29T08:43:48.517Z,24.49
2022-07-29T08:46:18.929Z,24.58
2022-07-29T08:48:47.059Z,24.64
2022-07-29T08:51:19.963Z,24.68
2022-07-29T08:53:50.070Z,24.72
2022-07-29T08:56:22.320Z,24.80
2022-07-29T08:58:52.692Z,24.86
2022-07-29T09:01:36.273Z,24.95
2022-07-29T09:04:14.366Z,25.08
2022-07-29T09:06:47.126Z,25.17
2022-07-29T09:09:17.366Z,25.27
2022-07-29T09:11:46.229Z,25.38
2022-07-29T09:14:16.764Z,25.40
2022-07-29T09:16:57.108Z,25.46
2022-07-29T09:19:30.548Z,25.53
2022-07-29T09:22:03.710Z,25.54
2022-07-29T09:24:41.008Z,25.62
2022-07-29T09:27:19.978Z,25.77
2022-07-29T09:29:48.143Z,25.87
2022-07-29T09:32:19.637Z,25.94
2022-07-29T09:34:47.767Z,25.95
2022-07-29T09:37:28.550Z,25.90
2022-07-29T09:39:59.037Z,25.91
2022-07-29T09:42:31.050Z,26.07
2022-07-29T09:44:59.137Z,26.27
2022-07-29T09:47:45.772Z,26.42
2022-07-29T09:50:15.962Z,26.41
2022-07-29T09:52:49.012Z,26.33
2022-07-29T09:55:18.201Z,26.29
2022-07-29T09:57:50.110Z,26.54
2022-07-29T10:00:20.863Z,26.69
2022-07-29T10:02:51.052Z,26.72
2022-07-29T10:05:21.823Z,26.81
2022-07-29T10:07:54.070Z,26.88
2022-07-29T10:10:24.991Z,26.91
2022-07-29T10:12:55.142Z,26.91
2022-07-29T10:15:27.451Z,26.95
2022-07-29T10:17:59.097Z,27.03
2022-07-29T10:20:29.699Z,27.14
2022-07-29T10:23:02.120Z,27.27
2022-07-29T10:25:30.117Z,27.48
2022-07-29T10:27:58.782Z,27.67
2022-07-29T10:30:28.759Z,27.74
2022-07-29T10:33:24.438Z,27.85
2022-07-29T10:36:06.696Z,27.98
2022-07-29T10:38:57.962Z,28.09
2022-07-29T10:41:49.651Z,28.25
2022-07-29T10:44:23.129Z,28.35
2022-07-29T10:46:55.063Z,28.24
2022-07-29T10:49:31.155Z,28.25
2022-07-29T10:52:01.956Z,28.29
2022-07-29T10:54:45.882Z,28.40
2022-07-29T10:57:16.109Z,28.52
2022-07-29T10:59:46.222Z,28.55
2022-07-29T11:02:54.332Z,28.66
2022-07-29T11:05:32.327Z,28.83
2022-07-29T11:08:27.905Z,28.94
2022-07-29T11:11:39.582Z,28.99
2022-07-29T11:14:12.315Z,29.08
2022-07-29T11:17:06.904Z,29.09
2022-07-29T11:19:37.239Z,29.17
2022-07-29T11:22:16.491Z,29.26
2022-07-29T11:24:50.238Z,29.46
2022-07-29T11:27:21.073Z,29.63
2022-07-29T11:29:55.089Z,29.69
2022-07-29T11:32:25.725Z,29.72
2022-07-29T11:38:29.216Z,29.88
2022-07-29T11:41:22.532Z,29.99
2022-07-29T11:43:53.221Z,30.13
2022-07-29T11:46:47.710Z,30.33
2022-07-29T11:49:32.490Z,30.42
2022-07-29T11:52:04.271Z,30.46
2022-07-29T11:54:57.074Z,30.44
2022-07-29T11:57:36.434Z,30.51
2022-07-29T12:00:12.339Z,30.58
2022-07-29T12:03:00.793Z,30.63
2022-07-29T12:05:38.475Z,30.65
2022-07-29T12:08:20.725Z,30.74
2022-07-29T12:10:52.779Z,30.75
2022-07-29T12:13:37.638Z,30.79
2022-07-29T12:16:06.723Z,30.87
2022-07-29T12:18:34.835Z,31.04
2022-07-29T12:21:04.788Z,31.19
2022-07-29T12:23:34.284Z,31.23
2022-07-29T12:26:07.562Z,31.33
2022-07-29T12:28:41.370Z,31.43
2022-07-29T12:31:43.806Z,31.55
2022-07-29T12:34:06.535Z,31.59
2022-07-29T12:36:34.830Z,31.64
2022-07-29T12:39:03.015Z,31.75
2022-07-29T12:41:32.613Z,31.90
2022-07-29T12:44:00.643Z,32.01
2022-07-29T12:46:31.434Z,31.96
2022-07-29T12:48:59.649Z,31.83
2022-07-29T12:51:32.046Z,31.88
2022-07-29T12:54:09.015Z,31.92
2022-07-29T12:56:43.239Z,31.70
2022-07-29T12:59:16.318Z,31.58
2022-07-29T13:01:44.678Z,31.63
2022-07-29T13:04:12.584Z,31.57
2022-07-29T13:06:45.799Z,31.64
2022-07-29T13:09:16.076Z,31.61
2022-07-29T13:11:50.305Z,31.82
2022-07-29T13:14:33.689Z,32.13
2022-07-29T13:17:06.980Z,32.42
2022-07-29T13:19:41.206Z,32.64
2022-07-29T13:22:09.822Z,32.79
2022-07-29T13:24:50.268Z,32.99
2022-07-29T13:27:21.295Z,33.13
2022-07-29T13:29:52.214Z,33.32
2022-07-29T13:32:27.747Z,33.48
2022-07-29T13:34:57.417Z,33.69
2022-07-29T13:37:25.714Z,33.66
2022-07-29T13:39:55.100Z,33.68
2022-07-29T13:42:28.058Z,33.56
2022-07-29T13:44:56.242Z,33.63
2022-07-29T13:47:32.703Z,33.63
2022-07-29T13:50:02.228Z,33.82
2022-07-29T13:52:32.543Z,34.02
2022-07-29T13:55:00.869Z,34.24
2022-07-29T13:57:30.829Z,34.42
2022-07-29T13:59:58.931Z,34.70
2022-07-29T14:02:26.986Z,34.76
2022-07-29T14:04:57.297Z,34.65
2022-07-29T14:07:27.904Z,34.24
2022-07-29T14:09:55.819Z,33.71
2022-07-29T14:12:23.846Z,33.20
2022-07-29T14:14:53.256Z,32.80
2022-07-29T14:17:21.462Z,32.58
2022-07-29T14:19:49.512Z,32.48
2022-07-29T14:22:20.041Z,32.32
2022-07-29T14:24:51.431Z,32.07
2022-07-29T14:27:19.369Z,31.86
2022-07-29T14:29:47.347Z,31.66
2022-07-29T14:32:19.287Z,31.51
2022-07-29T14:34:50.415Z,31.26
2022-07-29T14:37:20.905Z,31.13
2022-07-29T14:39:48.804Z,31.05
2022-07-29T14:42:18.859Z,31.10
2022-07-29T14:44:48.747Z,30.99
2022-07-29T14:47:17.335Z,30.99
2022-07-29T14:49:47.035Z,30.68
2022-07-29T14:52:15.334Z,30.49
2022-07-29T14:54:43.404Z,30.32
2022-07-29T14:57:13.874Z,30.22
2022-07-29T14:59:43.885Z,30.12
2022-07-29T15:02:11.903Z,30.03
2022-07-29T15:04:41.520Z,29.94
2022-07-29T15:07:10.792Z,29.75
2022-07-29T15:09:49.658Z,29.58
2022-07-29T15:12:18.285Z,29.44
2022-07-29T15:14:46.265Z,29.44
2022-07-29T15:17:16.800Z,29.37
2022-07-29T15:19:44.784Z,29.06
2022-07-29T15:22:14.445Z,28.71
2022-07-29T15:24:42.410Z,28.45
2022-07-29T15:27:14.875Z,28.25
2022-07-29T15:29:45.738Z,28.25
2022-07-29T15:32:13.824Z,28.13
2022-07-29T15:34:44.425Z,28.41
2022-07-29T15:37:13.806Z,28.06
2022-07-29T15:39:41.659Z,27.74
2022-07-29T15:42:09.711Z,27.50
2022-07-29T15:44:37.667Z,27.14
2022-07-29T15:47:07.029Z,26.76
2022-07-29T15:49:47.887Z,26.49
2022-07-29T15:52:25.344Z,26.31
2022-07-29T15:54:55.038Z,26.24
2022-07-29T15:57:23.464Z,26.20
2022-07-29T15:59:51.922Z,26.27
2022-07-29T16:02:20.587Z,26.72
2022-07-29T16:04:48.749Z,27.12
2022-07-29T16:07:18.347Z,27.18
2022-07-29T16:09:52.433Z,27.21
2022-07-29T16:12:23.372Z,27.53
2022-07-29T16:14:51.981Z,27.58
2022-07-29T16:17:20.912Z,27.43
2022-07-29T16:19:49.532Z,27.38
2022-07-29T16:22:18.849Z,27.33
2022-07-29T16:24:46.969Z,27.45
2022-07-29T16:27:15.431Z,29.13
2022-07-29T16:29:43.687Z,30.91
2022-07-29T16:32:11.882Z,30.94
2022-07-29T16:34:39.929Z,30.57
2022-07-29T16:37:10.107Z,29.89
2022-07-29T16:39:39.651Z,29.35
2022-07-29T16:42:09.932Z,28.69
2022-07-29T16:44:40.680Z,28.18
2022-07-29T16:47:08.623Z,27.69
2022-07-29T16:49:38.447Z,27.42
2022-07-29T16:52:07.611Z,27.20
2022-07-29T16:54:40.997Z,27.06
2022-07-29T16:57:09.560Z,26.91
2022-07-29T16:59:43.491Z,26.69
2022-07-29T17:02:14.077Z,26.75
2022-07-29T17:04:45.126Z,26.96
2022-07-29T17:07:15.974Z,28.71
2022-07-29T17:09:45.316Z,30.03
2022-07-29T17:12:15.437Z,30.98
2022-07-29T17:14:48.374Z,31.19
2022-07-29T17:17:20.880Z,30.65
2022-07-29T17:20:07.943Z,30.40
2022-07-29T17:22:36.236Z,30.02
2022-07-29T17:25:06.863Z,30.01
2022-07-29T17:27:35.531Z,29.85
2022-07-29T17:30:05.643Z,29.18
2022-07-29T17:32:36.445Z,28.78
2022-07-29T17:35:24.698Z,28.18
2022-07-29T17:37:52.858Z,27.76
2022-07-29T17:40:22.385Z,27.53
2022-07-29T17:42:50.431Z,27.23
2022-07-29T17:45:20.833Z,26.85
2022-07-29T17:47:48.802Z,26.91
2022-07-29T17:50:16.920Z,26.47
2022-07-29T17:52:47.494Z,26.25
2022-07-29T17:55:15.485Z,26.03
2022-07-29T17:57:44.675Z,25.89
2022-07-29T18:00:15.578Z,25.74
2022-07-29T18:02:45.998Z,25.52
2022-07-29T18:05:14.042Z,25.38
2022-07-29T18:07:41.923Z,25.28
2022-07-29T18:10:10.772Z,25.13
2022-07-29T18:12:38.726Z,24.86
2022-07-29T18:15:09.115Z,24.74
2022-07-29T18:17:56.598Z,24.59
2022-07-29T18:20:26.303Z,24.39
2022-07-29T18:22:56.646Z,24.27
2022-07-29T18:25:25.631Z,24.21
2022-07-29T18:27:58.430Z,24.11
2022-07-29T18:30:30.823Z,24.20
2022-07-29T18:33:20.387Z,24.04
2022-07-29T18:35:47.944Z,23.95
2022-07-29T18:38:16.231Z,23.77
2022-07-29T18:40:45.587Z,23.63
2022-07-29T18:43:16.339Z,23.51
2022-07-29T18:45:45.667Z,23.49
2022-07-29T18:48:13.806Z,23.52
2022-07-29T18:50:44.229Z,23.58
2022-07-29T18:53:12.222Z,23.55
2022-07-29T18:55:42.734Z,23.56
2022-07-29T18:58:12.849Z,23.55
2022-07-29T19:00:40.897Z,23.62
2022-07-29T19:03:13.316Z,23.46
2022-07-29T19:05:41.424Z,23.27
2022-07-29T19:08:10.276Z,23.18
2022-07-29T19:10:40.625Z,23.10
2022-07-29T19:13:13.475Z,23.08
2022-07-29T19:15:41.727Z,22.94
2022-07-29T19:18:09.610Z,22.73
2022-07-29T19:20:39.312Z,22.64
2022-07-29T19:23:07.369Z,22.62
2022-07-29T19:25:35.978Z,22.57
2022-07-29T19:28:03.940Z,22.54
2022-07-29T19:30:32.034Z,22.40
2022-07-29T19:33:00.060Z,22.35
2022-07-29T19:35:32.216Z,22.29
2022-07-29T19:38:04.322Z,22.26
2022-07-29T19:40:32.577Z,22.20
2022-07-29T19:43:00.672Z,22.18
2022-07-29T19:45:30.865Z,22.11
2022-07-29T19:48:02.749Z,22.08
2022-07-29T19:50:34.040Z,22.05
2022-07-29T19:53:03.807Z,22.03
2022-07-29T19:55:31.771Z,22.00
2022-07-29T19:57:59.875Z,21.97
2022-07-29T20:00:28.184Z,21.95
2022-07-29T20:02:57.347Z,21.93
2022-07-29T20:05:28.197Z,21.92
2022-07-29T20:07:56.526Z,21.88
2022-07-29T20:10:25.941Z,21.86
2022-07-29T20:12:55.392Z,21.88
2022-07-29T20:15:23.584Z,21.88
2022-07-29T20:17:56.589Z,21.89
2022-07-29T20:20:25.712Z,21.84
2022-07-29T20:22:53.807Z,21.84
2022-07-29T20:25:25.252Z,21.84
2022-07-29T20:27:55.482Z,21.86
2022-07-29T20:30:26.795Z,21.88
2022-07-29T20:32:55.515Z,21.90
2022-07-29T20:35:23.585Z,21.93
2022-07-29T20:37:55.781Z,21.97
2022-07-29T20:40:27.246Z,21.99
2022-07-29T20:42:57.744Z,21.94
2022-07-29T20:45:26.801Z,21.85
2022-07-29T20:47:54.972Z,21.78
2022-07-29T20:50:24.507Z,21.75
2022-07-29T20:52:53.475Z,21.78
2022-07-29T20:55:21.971Z,21.81
2022-07-29T20:57:51.387Z,21.80
2022-07-29T21:00:19.435Z,21.79
2022-07-29T21:02:47.908Z,21.78
2022-07-29T21:05:16.602Z,21.79
2022-07-29T21:07:44.658Z,21.75
2022-07-29T21:10:14.166Z,21.76
2022-07-29T21:12:42.874Z,21.77
2022-07-29T21:15:13.469Z,21.77
2022-07-29T21:17:46.796Z,21.76
2022-07-29T21:20:15.830Z,21.78
2022-07-29T21:22:46.651Z,21.82
2022-07-29T21:25:17.122Z,21.85
2022-07-29T21:28:02.849Z,21.88
2022-07-29T21:30:32.347Z,21.84
2022-07-29T21:33:00.328Z,21.78
2022-07-29T21:35:45.363Z,21.73
2022-07-29T21:38:18.270Z,21.62
2022-07-29T21:40:47.458Z,21.55
2022-07-29T21:43:16.581Z,21.52
2022-07-29T21:45:50.182Z,21.47
2022-07-29T21:48:19.333Z,21.41
2022-07-29T21:50:48.448Z,21.34
2022-07-29T21:53:22.101Z,21.26
2022-07-29T21:55:51.661Z,21.24
2022-07-29T21:58:24.684Z,21.18
2022-07-29T22:00:54.332Z,21.17
2022-07-29T22:03:22.486Z,21.13
2022-07-29T22:05:53.197Z,21.10
2022-07-29T22:08:21.351Z,21.05
2022-07-29T22:10:49.659Z,21.00
2022-07-29T22:13:17.824Z,20.98
2022-07-29T22:15:47.245Z,20.94
2022-07-29T22:18:19.566Z,20.88
2022-07-29T22:20:51.634Z,20.84
2022-07-29T22:23:19.886Z,20.79
2022-07-29T22:25:47.929Z,20.76
2022-07-29T22:28:16.409Z,20.74
2022-07-29T22:30:44.510Z,20.69
2022-07-29T22:33:17.830Z,20.66
2022-07-29T22:35:48.516Z,20.61
2022-07-29T22:38:17.517Z,20.56
2022-07-29T22:40:46.849Z,20.56
2022-07-29T22:43:16.852Z,20.53
2022-07-29T22:45:45.060Z,20.49
2022-07-29T22:48:13.355Z,20.45
2022-07-29T22:50:42.405Z,20.39
2022-07-29T22:53:14.259Z,20.34
2022-07-29T22:55:43.030Z,20.31
2022-07-29T22:58:11.951Z,20.30
2022-07-29T23:00:40.211Z,20.27
2022-07-29T23:03:10.524Z,20.24
2022-07-29T23:05:38.474Z,20.25
2022-07-29T23:08:06.508Z,20.18
2022-07-29T23:10:35.979Z,20.14
2022-07-29T23:13:03.980Z,20.11
2022-07-29T23:15:32.034Z,20.10
2022-07-29T23:18:00.728Z,20.09
2022-07-29T23:20:29.186Z,20.07
2022-07-29T23:22:57.119Z,20.05
2022-07-29T23:25:25.256Z,20.01
2022-07-29T23:27:54.564Z,20.08
2022-07-29T23:30:22.813Z,20.02
2022-07-29T23:32:50.908Z,20.00
2022-07-29T23:35:19.228Z,20.00
2022-07-29T23:37:47.177Z,19.96
2022-07-29T23:40:17.361Z,19.96
2022-07-29T23:42:45.915Z,19.99
2022-07-29T23:45:15.516Z,19.99
2022-07-29T23:47:43.925Z,20.03
2022-07-29T23:50:13.214Z,19.99
2022-07-29T23:52:41.378Z,19.99
2022-07-29T23:55:37.297Z,20.01
2022-07-29T23:57:58.302Z,20.01
